Time;durP1;ratioP1;P1;durP2;ratioP2;P2;SDS_P1;SDS_P2;PMS_P1;PMS_P2;Temp;Humidity;BMP_temperature;BMP_pressure;BME280_temperature;BME280_humidity;BME280_pressure;Samples;Min_cycle;Max_cycle;Signal;HPM_P1;HPM_P2
2023/06/16 00:05:45;;;;;;;5.18;2.40;;;;;;;19.76;32.21;100755.22;20899456;28;20219;-77
2023/06/16 00:15:47;;;;;;;2.63;2.10;;;;;;;19.57;32.79;100751.25;20888149;28;20223;-77
2023/06/16 00:25:50;;;;;;;4.95;2.53;;;;;;;19.32;32.75;100756.50;20880497;28;20195;-78
2023/06/16 00:35:52;;;;;;;3.95;2.60;;;;;;;19.40;33.08;100768.03;20893555;28;20288;-77
2023/06/16 00:45:54;;;;;;;3.53;2.47;;;;;;;19.14;33.28;100765.88;20880155;28;20250;-78
2023/06/16 00:55:57;;;;;;;4.70;2.45;;;;;;;18.97;34.03;100750.03;20891190;28;20626;-78
2023/06/16 01:06:05;;;;;;;4.13;2.58;;;;;;;18.41;35.97;100756.16;20908347;28;20249;-77
2023/06/16 01:16:09;;;;;;;6.07;2.67;;;;;;;18.42;35.65;100754.13;20891396;28;20228;-78
2023/06/16 01:38:01;;;;;;;5.68;2.67;;;;;;;18.33;35.16;100754.31;20916893;28;20265;-78
2023/06/16 01:48:03;;;;;;;2.97;2.45;;;;;;;18.32;34.97;100758.34;20904418;28;20227;-78
2023/06/16 01:58:06;;;;;;;3.72;2.75;;;;;;;18.06;35.01;100752.44;20896202;28;20211;-77
2023/06/16 02:08:09;;;;;;;3.83;2.90;;;;;;;17.62;36.73;100751.72;20886486;28;20520;-78
2023/06/16 02:18:11;;;;;;;2.95;2.42;;;;;;;17.95;36.65;100745.66;20960587;28;20235;-78
2023/06/16 02:28:13;;;;;;;4.72;2.58;;;;;;;17.36;38.78;100749.41;20930747;28;20218;-77
2023/06/16 02:38:16;;;;;;;3.30;2.38;;;;;;;17.09;39.09;100757.59;20925202;28;20520;-77
2023/06/16 02:48:18;;;;;;;3.30;2.45;;;;;;;17.51;37.54;100751.44;20925651;28;20196;-78
2023/06/16 02:58:21;;;;;;;3.78;2.88;;;;;;;17.30;38.47;100759.38;20877549;28;20640;-77
2023/06/16 03:08:24;;;;;;;3.25;2.67;;;;;;;16.71;40.52;100757.28;20931764;28;20520;-78
2023/06/16 03:18:27;;;;;;;4.85;2.58;;;;;;;16.48;41.56;100752.13;20938078;28;20850;-78
2023/06/16 03:28:31;;;;;;;4.88;3.22;;;;;;;16.60;41.15;100751.28;20909814;28;20218;-78
2023/06/16 03:38:33;;;;;;;5.20;3.45;;;;;;;16.57;41.68;100757.69;20922206;28;20222;-78
2023/06/16 03:48:35;;;;;;;3.88;3.20;;;;;;;16.24;42.71;100754.19;20948565;28;20258;-78
2023/06/16 03:58:40;;;;;;;4.82;3.33;;;;;;;16.24;44.08;100766.34;20934573;28;20223;-78
2023/06/16 04:08:44;;;;;;;5.90;3.65;;;;;;;16.42;43.23;100762.06;20917962;28;20249;-78
2023/06/16 04:18:49;;;;;;;5.70;3.45;;;;;;;16.90;42.20;100771.63;20951223;28;20557;-79
2023/06/16 04:28:55;;;;;;;6.15;4.10;;;;;;;16.87;42.39;100755.31;20959844;28;20246;-79
2023/06/16 04:39:00;;;;;;;16.38;5.90;;;;;;;16.80;43.56;100760.78;20914821;28;20662;-77
2023/06/16 04:49:03;;;;;;;20.77;5.90;;;;;;;17.06;43.42;100749.78;20968691;28;20188;-79
2023/06/16 04:59:06;;;;;;;18.40;5.97;;;;;;;17.12;44.10;100751.19;20950351;28;20288;-79
2023/06/16 05:09:08;;;;;;;13.98;5.35;;;;;;;17.66;43.11;100735.56;20943890;28;20284;-79
2023/06/16 05:19:11;;;;;;;11.35;4.82;;;;;;;17.93;40.71;100741.16;20957871;28;20685;-78
2023/06/16 05:29:22;;;;;;;10.10;5.55;;;;;;;18.42;37.43;100735.00;20946245;28;20198;-78
2023/06/16 05:39:25;;;;;;;9.77;4.93;;;;;;;18.19;39.42;100736.88;20984279;28;20700;-80
2023/06/16 05:49:27;;;;;;;10.43;5.35;;;;;;;18.50;36.84;100731.09;20964262;28;20488;-79
2023/06/16 05:59:30;;;;;;;11.60;4.72;;;;;;;18.38;35.64;100738.97;20964563;28;20215;-79
2023/06/16 06:09:32;;;;;;;11.88;5.53;;;;;;;18.96;36.52;100740.69;20950182;28;20252;-80
2023/06/16 06:19:35;;;;;;;5.57;4.03;;;;;;;18.71;33.54;100741.34;20961636;28;20222;-78
2023/06/16 06:29:38;;;;;;;4.13;3.65;;;;;;;19.25;33.60;100756.31;20961658;28;20418;-79
2023/06/16 06:39:42;;;;;;;9.32;3.95;;;;;;;19.19;34.33;100766.41;20935081;28;20304;-79
2023/06/16 06:49:45;;;;;;;9.10;4.97;;;;;;;19.01;34.12;100770.91;20922184;28;20277;-79
2023/06/16 06:59:47;;;;;;;10.43;5.28;;;;;;;19.90;32.24;100770.56;20913056;28;20269;-79
2023/06/16 07:09:49;;;;;;;13.05;4.38;;;;;;;20.25;31.45;100763.84;20920590;28;20211;-77
2023/06/16 07:19:52;;;;;;;19.98;5.28;;;;;;;20.27;30.87;100772.81;20907644;28;20211;-79
2023/06/16 07:29:54;;;;;;;7.65;4.07;;;;;;;20.68;30.89;100777.56;20921865;28;20277;-79
2023/06/16 07:39:56;;;;;;;9.98;3.97;;;;;;;21.07;28.33;100778.06;20915623;28;20219;-78
2023/06/16 07:49:59;;;;;;;3.70;3.10;;;;;;;21.52;26.76;100776.16;20890080;28;20204;-79
2023/06/16 08:00:04;;;;;;;7.03;3.25;;;;;;;21.65;28.27;100777.50;20918221;28;20262;-79
2023/06/16 08:10:19;;;;;;;5.68;3.38;;;;;;;22.34;25.66;100759.69;20917798;28;20253;-78
2023/06/16 08:20:22;;;;;;;4.90;2.60;;;;;;;22.30;22.05;100756.78;20909314;28;20211;-79
2023/06/16 08:30:25;;;;;;;5.13;2.55;;;;;;;22.89;22.79;100756.72;20920819;28;20200;-79
2023/06/16 08:40:27;;;;;;;4.97;2.38;;;;;;;22.65;23.05;100753.31;20921453;28;20281;-79
2023/06/16 08:50:29;;;;;;;3.90;2.22;;;;;;;22.88;22.34;100746.47;20928699;28;20246;-79
2023/06/16 09:00:32;;;;;;;3.40;1.90;;;;;;;21.86;21.87;100742.53;20918513;28;20289;-79
2023/06/16 09:10:35;;;;;;;2.83;2.17;;;;;;;23.58;21.76;100742.22;20968709;28;20220;-79
2023/06/16 09:20:51;;;;;;;3.35;3.05;;;;;;;23.15;22.32;100748.66;20968989;28;20203;-78
2023/06/16 09:31:01;;;;;;;4.75;2.20;;;;;;;23.79;21.09;100742.22;20939275;28;20215;-79
2023/06/16 09:41:16;;;;;;;4.00;2.47;;;;;;;23.49;22.07;100739.72;20935627;28;20192;-79
2023/06/16 09:51:23;;;;;;;3.90;2.45;;;;;;;24.01;21.91;100732.38;20932173;28;20200;-79
2023/06/16 10:01:25;;;;;;;3.08;2.50;;;;;;;23.48;20.87;100733.16;20931869;28;20273;-79
2023/06/16 10:11:28;;;;;;;6.03;2.40;;;;;;;23.63;21.47;100721.69;20928731;28;20516;-79
2023/06/16 10:21:31;;;;;;;3.30;2.47;;;;;;;22.86;22.52;100718.19;20942949;28;20187;-79
2023/06/16 10:31:34;;;;;;;3.33;2.40;;;;;;;23.52;19.83;100718.75;20893517;28;20216;-79
2023/06/16 10:41:51;;;;;;;2.78;2.58;;;;;;;24.68;20.07;100702.66;20959041;28;20188;-79
2023/06/16 10:51:56;;;;;;;3.65;2.50;;;;;;;24.56;20.03;100700.22;20958245;28;20229;-80
2023/06/16 11:01:59;;;;;;;4.65;2.75;;;;;;;24.08;21.29;100694.16;20900235;28;20188;-78
2023/06/16 11:12:02;;;;;;;5.45;3.13;;;;;;;24.90;19.66;100683.25;20924333;28;20219;-79
2023/06/16 11:22:05;;;;;;;5.28;2.95;;;;;;;24.81;20.17;100680.00;20920084;28;20188;-78
2023/06/16 11:32:08;;;;;;;4.55;2.60;;;;;;;24.34;20.37;100684.25;20946324;28;20263;-79
2023/06/16 11:42:14;;;;;;;5.25;3.10;;;;;;;26.11;19.46;100677.38;20918678;28;20584;-79
2023/06/16 11:52:17;;;;;;;4.47;3.03;;;;;;;25.87;20.04;100676.41;20920765;28;20222;-79
2023/06/16 12:02:19;;;;;;;4.57;2.90;;;;;;;25.53;20.13;100670.50;20904925;28;20605;-79
2023/06/16 12:12:25;;;;;;;3.28;2.80;;;;;;;26.23;18.97;100645.13;20913950;28;20285;-78
2023/06/16 12:22:33;;;;;;;3.50;2.60;;;;;;;26.43;19.57;100647.41;20917135;28;20482;-79
2023/06/16 12:32:35;;;;;;;3.25;2.95;;;;;;;26.54;18.57;100631.59;20916540;28;20609;-79
2023/06/16 12:42:38;;;;;;;3.78;3.00;;;;;;;25.27;19.79;100645.19;20904701;28;20241;-78
2023/06/16 12:52:40;;;;;;;3.03;2.72;;;;;;;27.64;17.84;100627.06;20914198;28;20236;-79
2023/06/16 13:02:42;;;;;;;3.42;2.88;;;;;;;27.03;18.22;100620.59;20918492;28;20196;-79
2023/06/16 13:12:45;;;;;;;3.72;3.33;;;;;;;26.20;18.82;100619.22;20909142;28;20555;-78
2023/06/16 13:22:47;;;;;;;4.70;2.67;;;;;;;26.61;18.95;100610.47;20916561;28;20188;-78
2023/06/16 13:32:49;;;;;;;3.53;2.70;;;;;;;27.34;19.48;100601.16;20934020;28;20231;-78
2023/06/16 13:42:52;;;;;;;3.30;3.00;;;;;;;25.57;19.67;100587.72;20944928;28;20524;-78
2023/06/16 13:52:54;;;;;;;4.78;2.80;;;;;;;27.21;19.44;100585.66;20933141;28;20212;-75
2023/06/16 14:02:56;;;;;;;6.30;2.60;;;;;;;26.84;20.11;100578.81;20932451;28;20188;-76
2023/06/16 14:12:59;;;;;;;3.05;2.65;;;;;;;28.18;18.35;100554.56;20945279;28;20269;-76
2023/06/16 14:23:02;;;;;;;3.38;3.05;;;;;;;27.95;18.13;100545.94;20931727;28;20195;-76
2023/06/16 14:33:07;;;;;;;3.83;3.08;;;;;;;26.63;18.45;100544.44;20951126;28;20208;-77
2023/06/16 14:43:12;;;;;;;4.93;3.30;;;;;;;26.95;18.95;100539.03;20939042;28;20265;-78
2023/06/16 14:53:15;;;;;;;5.30;3.22;;;;;;;26.61;19.30;100532.53;20925929;28;20555;-76
2023/06/16 15:03:17;;;;;;;4.40;2.90;;;;;;;27.16;18.50;100531.25;20923998;28;20184;-78
2023/06/16 15:13:20;;;;;;;4.00;2.97;;;;;;;26.50;19.92;100534.72;20916553;28;20273;-78
2023/06/16 15:23:22;;;;;;;3.17;2.88;;;;;;;26.78;18.66;100514.13;20917989;28;20219;-79
2023/06/16 15:33:25;;;;;;;4.72;3.50;;;;;;;26.53;19.40;100519.44;20943196;28;20228;-76
2023/06/16 15:43:27;;;;;;;5.55;3.17;;;;;;;27.55;18.45;100499.59;20925139;28;20469;-76
2023/06/16 15:53:29;;;;;;;3.88;3.10;;;;;;;26.98;19.42;100500.63;20893255;28;20215;-75
2023/06/16 16:03:32;;;;;;;5.22;3.15;;;;;;;25.99;20.08;100499.13;20927370;28;20191;-77
2023/06/16 16:13:34;;;;;;;4.60;3.00;;;;;;;25.60;20.21;100494.63;20926303;28;20315;-76
2023/06/16 16:23:38;;;;;;;3.40;3.10;;;;;;;25.77;19.67;100487.06;20903423;28;20600;-76
2023/06/16 16:33:40;;;;;;;4.53;3.65;;;;;;;25.98;19.69;100481.00;20908188;28;20282;-80
2023/06/16 16:43:42;;;;;;;6.10;3.50;;;;;;;26.03;19.94;100476.03;20906337;28;20276;-77
2023/06/16 16:53:45;;;;;;;6.10;3.28;;;;;;;26.59;20.24;100469.47;20919928;28;20220;-79
2023/06/16 17:03:47;;;;;;;5.28;3.17;;;;;;;25.66;21.16;100481.38;20922018;28;20763;-76
2023/06/16 17:13:49;;;;;;;3.80;3.20;;;;;;;26.39;20.11;100461.94;20932413;28;20321;-77
2023/06/16 17:23:52;;;;;;;5.53;3.08;;;;;;;25.98;20.14;100480.19;20916587;28;20200;-77
2023/06/16 17:33:54;;;;;;;6.28;3.17;;;;;;;25.73;21.25;100476.81;20912524;28;20748;-80
2023/06/16 17:44:03;;;;;;;3.88;2.88;;;;;;;25.29;21.40;100484.28;20900769;28;20488;-77
2023/06/16 17:54:05;;;;;;;5.38;3.42;;;;;;;25.72;21.97;100478.88;20901348;28;20251;-77
2023/06/16 18:04:08;;;;;;;4.10;3.67;;;;;;;25.35;22.28;100488.31;20894951;28;20208;-76
2023/06/16 18:14:10;;;;;;;4.13;3.15;;;;;;;25.31;22.54;100487.56;20890435;28;20247;-76
2023/06/16 18:24:13;;;;;;;6.32;3.58;;;;;;;25.23;22.81;100485.97;20920197;28;20195;-76
2023/06/16 18:34:15;;;;;;;3.42;3.10;;;;;;;25.36;23.12;100484.19;20903183;28;20215;-76
2023/06/16 18:44:18;;;;;;;4.22;3.78;;;;;;;25.26;22.53;100491.69;20897008;28;20710;-79
2023/06/16 18:54:23;;;;;;;4.65;3.30;;;;;;;25.01;23.79;100498.91;20901470;28;20251;-77
2023/06/16 19:04:26;;;;;;;3.85;2.83;;;;;;;24.94;23.51;100508.41;20879494;28;20196;-77
2023/06/16 19:14:29;;;;;;;4.15;3.67;;;;;;;24.57;23.49;100504.13;20885820;28;20251;-80
2023/06/16 19:24:31;;;;;;;3.25;2.88;;;;;;;24.74;25.08;100519.66;20905344;28;20739;-76
2023/06/16 19:34:35;;;;;;;3.60;2.67;;;;;;;24.28;24.67;100527.75;20874048;28;20537;-77
2023/06/16 19:44:38;;;;;;;5.55;3.35;;;;;;;23.58;26.21;100532.47;20876964;28;20264;-76
2023/06/16 19:54:40;;;;;;;4.13;2.88;;;;;;;23.63;25.27;100555.06;20909445;28;20251;-79
2023/06/16 20:04:43;;;;;;;3.85;2.85;;;;;;;24.02;25.65;100552.06;20910291;28;20215;-77
2023/06/16 20:14:45;;;;;;;5.13;3.00;;;;;;;23.23;26.53;100562.03;20913355;28;20621;-77
2023/06/16 20:24:48;;;;;;;4.57;2.70;;;;;;;23.27;26.55;100571.47;20906400;28;20195;-77
2023/06/16 20:34:55;;;;;;;7.47;3.03;;;;;;;23.18;26.97;100572.69;20911106;28;20789;-77
2023/06/16 20:44:58;;;;;;;4.35;3.10;;;;;;;22.29;28.19;100571.66;20910515;28;20254;-76
2023/06/16 20:55:01;;;;;;;4.78;2.88;;;;;;;22.28;28.89;100567.13;20931623;28;20305;-77
2023/06/16 21:05:05;;;;;;;7.97;2.97;;;;;;;21.59;30.82;100570.00;20925903;28;21067;-77
2023/06/16 21:15:11;;;;;;;6.45;3.92;;;;;;;21.88;29.43;100571.03;20956699;28;20297;-77
2023/06/16 21:25:15;;;;;;;4.28;3.85;;;;;;;21.60;30.19;100559.38;20922564;28;20519;-77
2023/06/16 21:35:18;;;;;;;4.28;3.25;;;;;;;21.55;30.38;100566.31;20917248;28;20222;-77
2023/06/16 21:45:20;;;;;;;5.18;3.88;;;;;;;21.23;31.40;100568.09;20926960;28;20547;-76
2023/06/16 21:55:22;;;;;;;3.97;3.53;;;;;;;20.67;32.32;100569.16;20923932;28;20266;-77
2023/06/16 22:05:25;;;;;;;4.15;3.42;;;;;;;20.32;33.32;100575.28;20906248;28;20216;-77
2023/06/16 22:15:28;;;;;;;5.63;4.15;;;;;;;20.81;32.10;100571.34;20904991;28;20220;-77
2023/06/16 22:25:33;;;;;;;9.15;3.67;;;;;;;19.83;34.62;100579.13;20932144;28;20195;-77
2023/06/16 22:35:35;;;;;;;5.78;3.83;;;;;;;20.42;33.36;100573.75;20832762;28;20810;-77
2023/06/16 22:45:37;;;;;;;5.35;3.95;;;;;;;19.56;34.83;100578.31;20932197;28;20261;-77
2023/06/16 22:55:40;;;;;;;4.95;3.90;;;;;;;19.86;34.45;100581.22;20924325;28;20694;-77
2023/06/16 23:05:43;;;;;;;5.50;3.97;;;;;;;19.32;35.29;100579.56;20898606;28;20215;-77
2023/06/16 23:15:46;;;;;;;6.10;4.00;;;;;;;19.43;35.63;100571.16;20899198;28;20813;-76
2023/06/16 23:25:51;;;;;;;5.95;3.85;;;;;;;18.91;35.94;100574.75;20933693;28;20667;-77
2023/06/16 23:35:53;;;;;;;4.90;4.13;;;;;;;18.72;36.97;100575.59;20926732;28;20227;-77
2023/06/16 23:45:56;;;;;;;10.68;4.15;;;;;;;18.16;37.13;100566.75;20882929;28;20231;-77
2023/06/16 23:55:58;;;;;;;5.45;4.40;;;;;;;17.83;38.49;100570.88;20895537;28;20251;-77
